Annabella, Utah
Current Conditions -  °F | °C
As of 3:15 PM on Sunday 25 Jan 2015 (Local Time) from KDTA Reporting Station
Clear Clear  
Wind Chill: 11°   Ceiling: Unl
Heat Index: 11°   Visibility: 10mi
Dew Point:   Wind: 6mph
Humidity: 49%   Direction: 360°N
Pressure: 30.39"   Gusts: NA
Location:  38.71°N, 112.06°W
Report Text: KDTA 252215Z AUTO 36005KT 10SM CLR 11/00 A3039 RMK AO1 T01060002
Loading
Personal Weather Stations






























Interactive Weather Map New forecast layout! Learn more

10-Day Weather Forecast

Advertisements
Track Severe Weather on mobile